createdAt,value
2023-01-28T00:00:00.927Z,100.00
2023-01-28T00:05:03.827Z,100.00
2023-01-28T00:10:09.284Z,100.00
2023-01-28T00:15:14.869Z,100.00
2023-01-28T00:20:18.155Z,100.00
2023-01-28T00:25:22.418Z,100.00
2023-01-28T00:30:25.197Z,100.00
2023-01-28T00:35:27.994Z,100.00
2023-01-28T00:40:32.408Z,100.00
2023-01-28T00:45:35.135Z,100.00
2023-01-28T00:50:39.320Z,100.00
2023-01-28T00:55:44.079Z,100.00
2023-01-28T01:00:47.155Z,100.00
2023-01-28T01:05:50.226Z,100.00
2023-01-28T01:10:54.408Z,100.00
2023-01-28T01:16:05.011Z,100.00
2023-01-28T01:21:09.680Z,100.00
2023-01-28T01:26:14.578Z,100.00
2023-01-28T01:31:18.962Z,100.00
2023-01-28T01:36:22.467Z,100.00
2023-01-28T01:41:29.803Z,100.00
2023-01-28T01:46:37.249Z,100.00
2023-01-28T01:51:40.936Z,100.00
2023-01-28T01:56:48.518Z,100.00
2023-01-28T02:01:51.855Z,100.00
2023-01-28T02:06:54.694Z,100.00
2023-01-28T02:12:03.906Z,100.00
2023-01-28T02:17:06.851Z,100.00
2023-01-28T02:22:42.314Z,100.00
2023-01-28T02:28:02.595Z,100.00
2023-01-28T02:33:10.353Z,100.00
2023-01-28T02:38:19.518Z,100.00
2023-01-28T02:43:32.703Z,100.00
2023-01-28T02:48:35.573Z,100.00
2023-01-28T02:53:46.611Z,100.00
2023-01-28T02:59:00.518Z,100.00
2023-01-28T03:04:09.196Z,100.00
2023-01-28T03:09:24.770Z,100.00
2023-01-28T03:14:51.285Z,100.00
2023-01-28T03:20:13.023Z,100.00
2023-01-28T03:25:34.947Z,100.00
2023-01-28T03:31:03.294Z,100.00
2023-01-28T03:36:33.432Z,100.00
2023-01-28T03:41:36.279Z,100.00
2023-01-28T03:46:40.529Z,100.00
2023-01-28T03:51:43.827Z,100.00
2023-01-28T03:56:48.471Z,100.00
2023-01-28T04:01:52.724Z,100.00
2023-01-28T04:06:56.231Z,100.00
2023-01-28T04:12:01.715Z,100.00
2023-01-28T04:17:11.776Z,100.00
2023-01-28T04:22:15.376Z,100.00
2023-01-28T04:27:19.006Z,100.00
2023-01-28T04:32:24.952Z,100.00
2023-01-28T04:37:53.861Z,100.00
2023-01-28T04:43:11.035Z,100.00
2023-01-28T04:48:30.528Z,100.00
2023-01-28T04:53:52.003Z,100.00
2023-01-28T04:59:03.654Z,100.00
2023-01-28T05:04:09.864Z,100.00
2023-01-28T05:09:14.757Z,100.00
2023-01-28T05:14:17.632Z,100.00
2023-01-28T05:19:47.667Z,100.00
2023-01-28T05:24:55.977Z,100.00
2023-01-28T05:29:59.898Z,100.00
2023-01-28T05:35:06.008Z,100.00
2023-01-28T05:40:11.146Z,100.00
2023-01-28T05:45:14.336Z,100.00
2023-01-28T05:50:38.036Z,100.00
2023-01-28T05:55:49.673Z,100.00
2023-01-28T06:00:55.984Z,100.00
2023-01-28T06:06:05.958Z,100.00
2023-01-28T06:11:08.692Z,100.00
2023-01-28T06:16:11.885Z,100.00
2023-01-28T06:21:35.245Z,100.00
2023-01-28T06:26:37.963Z,100.00
2023-01-28T06:31:40.893Z,100.00
2023-01-28T06:36:45.247Z,100.00
2023-01-28T06:41:47.986Z,100.00
2023-01-28T06:46:50.979Z,100.00
2023-01-28T06:51:55.282Z,100.00
2023-01-28T06:56:58.083Z,100.00
2023-01-28T07:02:00.904Z,100.00
2023-01-28T07:07:05.449Z,100.00
2023-01-28T07:12:08.443Z,100.00
2023-01-28T07:17:11.169Z,100.00
2023-01-28T07:22:15.358Z,100.00
2023-01-28T07:27:18.268Z,100.00
2023-01-28T07:32:21.110Z,100.00
2023-01-28T07:37:25.390Z,100.00
2023-01-28T07:42:28.314Z,100.00
2023-01-28T07:47:31.159Z,100.00
2023-01-28T07:52:38.827Z,100.00
2023-01-28T07:57:49.804Z,100.00
2023-01-28T08:02:57.185Z,100.00
2023-01-28T08:08:01.327Z,100.00
2023-01-28T08:13:04.187Z,100.00
2023-01-28T08:18:08.867Z,100.00
2023-01-28T08:23:15.328Z,100.00
2023-01-28T08:28:19.110Z,100.00
2023-01-28T08:33:21.998Z,100.00
2023-01-28T08:38:26.179Z,100.00
2023-01-28T08:43:28.968Z,100.00
2023-01-28T08:48:31.762Z,100.00
2023-01-28T08:53:36.471Z,100.00
2023-01-28T08:58:39.302Z,100.00
2023-01-28T09:03:42.112Z,100.00
2023-01-28T09:08:46.470Z,100.00
2023-01-28T09:13:49.330Z,100.00
2023-01-28T09:18:52.289Z,100.00
2023-01-28T09:23:58.401Z,100.00
2023-01-28T09:29:01.376Z,100.00
2023-01-28T09:34:04.190Z,100.00
2023-01-28T09:39:08.933Z,100.00
2023-01-28T09:44:28.423Z,100.00
2023-01-28T09:49:36.331Z,100.00
2023-01-28T09:54:46.467Z,100.00
2023-01-28T09:59:50.168Z,100.00
2023-01-28T10:05:00.966Z,100.00
2023-01-28T10:10:12.723Z,100.00
2023-01-28T10:15:31.677Z,100.00
2023-01-28T10:20:39.378Z,100.00
2023-01-28T10:25:48.165Z,100.00
2023-01-28T10:30:52.087Z,100.00
2023-01-28T10:35:56.448Z,100.00
2023-01-28T10:41:03.361Z,100.00
2023-01-28T10:46:13.005Z,100.00
2023-01-28T10:51:15.871Z,100.00
2023-01-28T10:56:28.121Z,100.00
2023-01-28T11:01:46.328Z,100.00
2023-01-28T11:06:57.481Z,100.00
2023-01-28T11:12:12.810Z,99.38
2023-01-28T11:17:19.366Z,99.56
2023-01-28T11:22:33.515Z,98.18
2023-01-28T11:27:38.377Z,99.45
2023-01-28T11:32:41.431Z,96.35
2023-01-28T11:37:49.522Z,94.45
2023-01-28T11:42:56.919Z,97.08
2023-01-28T11:48:19.231Z,95.20
2023-01-28T11:53:52.048Z,94.68
2023-01-28T11:59:09.326Z,93.96
2023-01-28T12:04:23.957Z,95.00
2023-01-28T12:09:35.676Z,94.66
2023-01-28T12:14:59.138Z,91.03
2023-01-28T12:20:15.494Z,91.49
2023-01-28T12:25:34.713Z,91.32
2023-01-28T12:30:54.447Z,91.94
2023-01-28T12:36:10.032Z,90.58
2023-01-28T12:41:16.985Z,91.20
2023-01-28T12:46:30.985Z,91.36
2023-01-28T12:51:39.582Z,92.79
2023-01-28T12:56:48.599Z,93.71
2023-01-28T13:02:02.606Z,93.30
2023-01-28T13:07:13.272Z,96.84
2023-01-28T13:12:17.496Z,95.77
2023-01-28T13:17:30.272Z,94.59
2023-01-28T13:22:35.156Z,95.84
2023-01-28T13:27:38.155Z,96.20
2023-01-28T13:32:42.527Z,92.44
2023-01-28T13:37:47.076Z,92.16
2023-01-28T13:42:59.514Z,93.68
2023-01-28T13:48:20.154Z,93.54
2023-01-28T13:53:32.302Z,94.19
2023-01-28T13:58:51.803Z,94.12
2023-01-28T14:04:45.519Z,95.82
2023-01-28T14:10:15.146Z,95.01
2023-01-28T14:15:33.601Z,97.47
2023-01-28T14:20:42.209Z,96.83
2023-01-28T14:26:02.633Z,94.84
2023-01-28T14:31:10.245Z,95.87
2023-01-28T14:36:13.375Z,92.09
2023-01-28T14:41:26.106Z,93.56
2023-01-28T14:46:37.215Z,93.60
2023-01-28T14:51:54.087Z,93.40
2023-01-28T14:57:16.492Z,90.57
2023-01-28T15:02:21.748Z,93.66
2023-01-28T15:07:27.188Z,95.31
2023-01-28T15:12:35.359Z,97.01
2023-01-28T15:17:38.306Z,97.48
2023-01-28T15:22:43.632Z,97.00
2023-01-28T15:27:48.524Z,99.31
2023-01-28T15:33:03.236Z,98.37
2023-01-28T15:38:06.354Z,99.83
2023-01-28T15:43:19.355Z,100.00
2023-01-28T15:48:23.374Z,100.00
2023-01-28T15:53:26.286Z,100.00
2023-01-28T15:58:33.573Z,100.00
2023-01-28T16:03:39.466Z,100.00
2023-01-28T16:08:49.110Z,100.00
2023-01-28T16:13:53.891Z,100.00
2023-01-28T16:18:56.890Z,100.00
2023-01-28T16:24:02.647Z,100.00
2023-01-28T16:29:16.849Z,100.00
2023-01-28T16:34:19.718Z,100.00
2023-01-28T16:39:22.578Z,100.00
2023-01-28T16:44:26.622Z,100.00
2023-01-28T16:49:29.324Z,100.00
2023-01-28T16:54:32.455Z,100.00
2023-01-28T16:59:36.657Z,100.00
2023-01-28T17:04:39.473Z,100.00
2023-01-28T17:09:42.212Z,100.00
2023-01-28T17:14:46.320Z,100.00
2023-01-28T17:19:49.021Z,100.00
2023-01-28T17:24:51.755Z,100.00
2023-01-28T17:29:55.875Z,100.00
2023-01-28T17:34:58.583Z,100.00
2023-01-28T17:40:01.335Z,100.00
2023-01-28T17:45:06.095Z,100.00
2023-01-28T17:50:09.632Z,100.00
2023-01-28T17:55:12.425Z,100.00
2023-01-28T18:00:18.075Z,100.00
2023-01-28T18:05:21.436Z,100.00
2023-01-28T18:10:24.187Z,100.00
2023-01-28T18:15:28.441Z,100.00
2023-01-28T18:20:31.178Z,100.00
2023-01-28T18:25:34.100Z,100.00
2023-01-28T18:30:38.284Z,100.00
2023-01-28T18:35:44.004Z,100.00
2023-01-28T18:40:47.316Z,100.00
2023-01-28T18:45:52.174Z,100.00
2023-01-28T18:50:58.431Z,100.00
2023-01-28T18:56:02.400Z,100.00
2023-01-28T19:01:09.988Z,100.00
2023-01-28T19:06:13.192Z,100.00
2023-01-28T19:11:16.337Z,100.00
2023-01-28T19:16:21.063Z,100.00
2023-01-28T19:21:24.915Z,100.00
2023-01-28T19:26:28.960Z,100.00
2023-01-28T19:31:33.095Z,100.00
2023-01-28T19:36:36.348Z,100.00
2023-01-28T19:41:39.313Z,100.00
2023-01-28T19:46:43.475Z,100.00
2023-01-28T19:51:46.329Z,100.00
2023-01-28T19:56:49.129Z,100.00
2023-01-28T20:01:53.403Z,100.00
2023-01-28T20:06:56.342Z,100.00
2023-01-28T20:11:59.051Z,100.00
2023-01-28T20:17:03.144Z,100.00
2023-01-28T20:22:05.884Z,100.00
2023-01-28T20:27:08.679Z,100.00
2023-01-28T20:32:18.292Z,100.00
2023-01-28T20:37:22.878Z,100.00
2023-01-28T20:42:25.727Z,100.00
2023-01-28T20:47:29.840Z,100.00
2023-01-28T20:52:32.641Z,100.00
2023-01-28T20:57:36.696Z,100.00
2023-01-28T21:02:43.887Z,100.00
2023-01-28T21:07:46.724Z,100.00
2023-01-28T21:12:49.932Z,100.00
2023-01-28T21:17:54.009Z,100.00
2023-01-28T21:22:57.163Z,100.00
2023-01-28T21:27:59.933Z,100.00
2023-01-28T21:33:04.231Z,100.00
2023-01-28T21:38:07.527Z,100.00
2023-01-28T21:43:12.482Z,100.00
2023-01-28T21:48:17.358Z,100.00
2023-01-28T21:53:20.113Z,100.00
2023-01-28T21:58:40.673Z,100.00
2023-01-28T22:03:44.892Z,100.00
2023-01-28T22:08:47.613Z,100.00
2023-01-28T22:13:50.904Z,100.00
2023-01-28T22:18:55.136Z,100.00
2023-01-28T22:23:58.245Z,100.00
2023-01-28T22:29:01.762Z,100.00
2023-01-28T22:34:06.733Z,100.00
2023-01-28T22:39:13.958Z,100.00
2023-01-28T22:44:19.660Z,100.00
2023-01-28T22:49:26.637Z,100.00
2023-01-28T22:54:29.707Z,100.00
2023-01-28T22:59:33.512Z,100.00
2023-01-28T23:04:37.582Z,100.00
2023-01-28T23:09:40.398Z,100.00
2023-01-28T23:15:00.687Z,100.00
2023-01-28T23:20:22.394Z,100.00
2023-01-28T23:25:25.351Z,100.00
2023-01-28T23:30:28.399Z,100.00
2023-01-28T23:35:32.771Z,100.00
2023-01-28T23:40:35.557Z,100.00
2023-01-28T23:45:38.337Z,100.00
2023-01-28T23:50:44.771Z,100.00
2023-01-28T23:55:47.559Z,100.00
